sensor_id;sensor_type;location;lat;lon;timestamp;pressure;altitude;pressure_sealevel;temperature;humidity
39209;BME280;24929;51.982;4.664;2022-12-18T00:01:01;79828.09;;;-143.36;nan
39209;BME280;24929;51.982;4.664;2022-12-18T00:03:33;79820.06;;;-143.36;nan
39209;BME280;24929;51.982;4.664;2022-12-18T00:05:59;79808.00;;;-143.36;nan
39209;BME280;24929;51.982;4.664;2022-12-18T00:08:24;79826.09;;;-143.36;nan
39209;BME280;24929;51.982;4.664;2022-12-18T00:10:50;79806.00;;;-143.36;nan
39209;BME280;24929;51.982;4.664;2022-12-18T00:13:15;79808.00;;;-143.36;nan
39209;BME280;24929;51.982;4.664;2022-12-18T00:15:40;79810.03;;;-143.36;nan
39209;BME280;24929;51.982;4.664;2022-12-18T00:18:06;79810.03;;;-143.36;nan
39209;BME280;24929;51.982;4.664;2022-12-18T00:20:36;79751.78;;;-143.36;nan
39209;BME280;24929;51.982;4.664;2022-12-18T00:23:01;79765.84;;;-143.36;nan
39209;BME280;24929;51.982;4.664;2022-12-18T00:25:27;79745.75;;;-143.36;nan
39209;BME280;24929;51.982;4.664;2022-12-18T00:27:52;79799.97;;;-143.36;nan
39209;BME280;24929;51.982;4.664;2022-12-18T00:30:17;79810.03;;;-143.36;nan
39209;BME280;24929;51.982;4.664;2022-12-18T00:32:43;79808.00;;;-143.36;nan
39209;BME280;24929;51.982;4.664;2022-12-18T00:35:08;79824.06;;;-143.36;nan
39209;BME280;24929;51.982;4.664;2022-12-18T00:37:34;79864.25;;;-143.36;nan
39209;BME280;24929;51.982;4.664;2022-12-18T00:39:59;79842.16;;;-143.36;nan
39209;BME280;24929;51.982;4.664;2022-12-18T00:42:24;79856.22;;;-143.36;nan
39209;BME280;24929;51.982;4.664;2022-12-18T00:45:08;79868.25;;;-143.36;nan
39209;BME280;24929;51.982;4.664;2022-12-18T00:47:34;79844.16;;;-143.36;nan
39209;BME280;24929;51.982;4.664;2022-12-18T00:49:59;79834.13;;;-143.36;nan
39209;BME280;24929;51.982;4.664;2022-12-18T00:52:25;79852.19;;;-143.36;nan
39209;BME280;24929;51.982;4.664;2022-12-18T00:54:50;79842.16;;;-143.36;nan
39209;BME280;24929;51.982;4.664;2022-12-18T00:57:15;79832.09;;;-143.36;nan
39209;BME280;24929;51.982;4.664;2022-12-18T00:59:41;79826.09;;;-143.36;nan
39209;BME280;24929;51.982;4.664;2022-12-18T01:02:06;79779.91;;;-143.36;nan
39209;BME280;24929;51.982;4.664;2022-12-18T01:04:32;79777.88;;;-143.36;nan
39209;BME280;24929;51.982;4.664;2022-12-18T01:06:58;79797.97;;;-143.36;nan
39209;BME280;24929;51.982;4.664;2022-12-18T01:09:23;79806.00;;;-143.36;nan
39209;BME280;24929;51.982;4.664;2022-12-18T01:11:49;79810.03;;;-143.36;nan
39209;BME280;24929;51.982;4.664;2022-12-18T01:14:14;79876.28;;;-143.36;nan
39209;BME280;24929;51.982;4.664;2022-12-18T01:16:39;79906.41;;;-143.36;nan
39209;BME280;24929;51.982;4.664;2022-12-18T01:19:05;79882.31;;;-143.36;nan
39209;BME280;24929;51.982;4.664;2022-12-18T01:21:30;79870.28;;;-143.36;nan
39209;BME280;24929;51.982;4.664;2022-12-18T01:23:56;79872.28;;;-143.36;nan
39209;BME280;24929;51.982;4.664;2022-12-18T01:26:22;79840.16;;;-143.36;nan
39209;BME280;24929;51.982;4.664;2022-12-18T01:28:47;79842.16;;;-143.36;nan
39209;BME280;24929;51.982;4.664;2022-12-18T01:31:22;79832.09;;;-143.36;nan
39209;BME280;24929;51.982;4.664;2022-12-18T01:33:47;79878.31;;;-143.36;nan
39209;BME280;24929;51.982;4.664;2022-12-18T01:36:20;79816.03;;;-143.36;nan
39209;BME280;24929;51.982;4.664;2022-12-18T01:38:46;79850.19;;;-143.36;nan
39209;BME280;24929;51.982;4.664;2022-12-18T01:41:12;79864.25;;;-143.36;nan
39209;BME280;24929;51.982;4.664;2022-12-18T01:43:53;79801.97;;;-143.36;nan
39209;BME280;24929;51.982;4.664;2022-12-18T01:46:21;79836.13;;;-143.36;nan
39209;BME280;24929;51.982;4.664;2022-12-18T01:48:54;79826.09;;;-143.36;nan
39209;BME280;24929;51.982;4.664;2022-12-18T01:51:22;79872.28;;;-143.36;nan
39209;BME280;24929;51.982;4.664;2022-12-18T01:53:48;79868.25;;;-143.36;nan
39209;BME280;24929;51.982;4.664;2022-12-18T01:56:16;79824.06;;;-143.36;nan
39209;BME280;24929;51.982;4.664;2022-12-18T01:59:01;79787.94;;;-143.36;nan
39209;BME280;24929;51.982;4.664;2022-12-18T02:01:29;79846.16;;;-143.36;nan
39209;BME280;24929;51.982;4.664;2022-12-18T02:03:55;79862.25;;;-143.36;nan
39209;BME280;24929;51.982;4.664;2022-12-18T02:06:32;79844.16;;;-143.36;nan
39209;BME280;24929;51.982;4.664;2022-12-18T02:09:21;79850.19;;;-143.36;nan
39209;BME280;24929;51.982;4.664;2022-12-18T02:11:56;79906.41;;;-143.36;nan
39209;BME280;24929;51.982;4.664;2022-12-18T02:14:28;79870.28;;;-143.36;nan
39209;BME280;24929;51.982;4.664;2022-12-18T02:17:06;79848.19;;;-143.36;nan
39209;BME280;24929;51.982;4.664;2022-12-18T02:27:39;79860.22;;;-143.36;nan
39209;BME280;24929;51.982;4.664;2022-12-18T02:30:07;79852.19;;;-143.36;nan
39209;BME280;24929;51.982;4.664;2022-12-18T02:32:47;79838.13;;;-143.36;nan
39209;BME280;24929;51.982;4.664;2022-12-18T02:35:22;79864.25;;;-143.36;nan
39209;BME280;24929;51.982;4.664;2022-12-18T02:37:49;79906.41;;;-143.36;nan
39209;BME280;24929;51.982;4.664;2022-12-18T02:40:19;79902.41;;;-143.36;nan
39209;BME280;24929;51.982;4.664;2022-12-18T02:42:46;79920.47;;;-143.36;nan
39209;BME280;24929;51.982;4.664;2022-12-18T02:45:12;79928.50;;;-143.36;nan
39209;BME280;24929;51.982;4.664;2022-12-18T02:47:39;79910.44;;;-143.36;nan
39209;BME280;24929;51.982;4.664;2022-12-18T02:50:40;79846.16;;;-143.36;nan
39209;BME280;24929;51.982;4.664;2022-12-18T02:53:34;79908.44;;;-143.36;nan
39209;BME280;24929;51.982;4.664;2022-12-18T02:59:05;79862.25;;;-143.36;nan
39209;BME280;24929;51.982;4.664;2022-12-18T03:02:16;79868.25;;;-143.36;nan
39209;BME280;24929;51.982;4.664;2022-12-18T03:04:26;79852.19;;;-143.36;nan
39209;BME280;24929;51.982;4.664;2022-12-18T03:06:56;79846.16;;;-143.36;nan
39209;BME280;24929;51.982;4.664;2022-12-18T03:09:38;79896.38;;;-143.36;nan
39209;BME280;24929;51.982;4.664;2022-12-18T03:14:50;79878.31;;;-143.36;nan
39209;BME280;24929;51.982;4.664;2022-12-18T03:17:20;79900.41;;;-143.36;nan
39209;BME280;24929;51.982;4.664;2022-12-18T03:19:48;79874.28;;;-143.36;nan
39209;BME280;24929;51.982;4.664;2022-12-18T03:22:16;79850.19;;;-143.36;nan
39209;BME280;24929;51.982;4.664;2022-12-18T03:24:42;79880.31;;;-143.36;nan
39209;BME280;24929;51.982;4.664;2022-12-18T03:27:12;79856.22;;;-143.36;nan
39209;BME280;24929;51.982;4.664;2022-12-18T03:29:43;79898.38;;;-143.36;nan
39209;BME280;24929;51.982;4.664;2022-12-18T03:32:15;79896.38;;;-143.36;nan
39209;BME280;24929;51.982;4.664;2022-12-18T03:34:44;79924.50;;;-143.36;nan
39209;BME280;24929;51.982;4.664;2022-12-18T03:37:11;79924.50;;;-143.36;nan
39209;BME280;24929;51.982;4.664;2022-12-18T03:39:37;79912.44;;;-143.36;nan
39209;BME280;24929;51.982;4.664;2022-12-18T03:42:05;79900.41;;;-143.36;nan
39209;BME280;24929;51.982;4.664;2022-12-18T03:45:34;79838.13;;;-143.36;nan
39209;BME280;24929;51.982;4.664;2022-12-18T03:55:39;79870.28;;;-143.36;nan
39209;BME280;24929;51.982;4.664;2022-12-18T03:58:06;79868.25;;;-143.36;nan
39209;BME280;24929;51.982;4.664;2022-12-18T04:00:32;79874.28;;;-143.36;nan
39209;BME280;24929;51.982;4.664;2022-12-18T04:03:00;79856.22;;;-143.36;nan
39209;BME280;24929;51.982;4.664;2022-12-18T04:05:28;79886.34;;;-143.36;nan
39209;BME280;24929;51.982;4.664;2022-12-18T04:07:54;79866.25;;;-143.36;nan
39209;BME280;24929;51.982;4.664;2022-12-18T04:10:21;79918.47;;;-143.36;nan
39209;BME280;24929;51.982;4.664;2022-12-18T04:12:47;79912.44;;;-143.36;nan
39209;BME280;24929;51.982;4.664;2022-12-18T04:15:13;79956.63;;;-143.36;nan
39209;BME280;24929;51.982;4.664;2022-12-18T04:17:45;79864.25;;;-143.36;nan
39209;BME280;24929;51.982;4.664;2022-12-18T04:20:12;79948.59;;;-143.36;nan
39209;BME280;24929;51.982;4.664;2022-12-18T04:22:37;79932.53;;;-143.36;nan
39209;BME280;24929;51.982;4.664;2022-12-18T04:25:03;79930.53;;;-143.36;nan
39209;BME280;24929;51.982;4.664;2022-12-18T04:27:28;79916.47;;;-143.36;nan
39209;BME280;24929;51.982;4.664;2022-12-18T04:29:54;79902.41;;;-143.36;nan
39209;BME280;24929;51.982;4.664;2022-12-18T04:32:19;79934.53;;;-143.36;nan
39209;BME280;24929;51.982;4.664;2022-12-18T04:34:45;79942.56;;;-143.36;nan
39209;BME280;24929;51.982;4.664;2022-12-18T04:37:10;79942.56;;;-143.36;nan
39209;BME280;24929;51.982;4.664;2022-12-18T04:39:36;79926.50;;;-143.36;nan
39209;BME280;24929;51.982;4.664;2022-12-18T04:42:02;79954.63;;;-143.36;nan
39209;BME280;24929;51.982;4.664;2022-12-18T04:44:27;79968.69;;;-143.36;nan
39209;BME280;24929;51.982;4.664;2022-12-18T04:46:53;79972.69;;;-143.36;nan
39209;BME280;24929;51.982;4.664;2022-12-18T04:49:18;79970.69;;;-143.36;nan
39209;BME280;24929;51.982;4.664;2022-12-18T04:51:43;79976.72;;;-143.36;nan
39209;BME280;24929;51.982;4.664;2022-12-18T04:54:09;79994.78;;;-143.36;nan
39209;BME280;24929;51.982;4.664;2022-12-18T04:56:34;79994.78;;;-143.36;nan
39209;BME280;24929;51.982;4.664;2022-12-18T04:58:59;79980.72;;;-143.36;nan
39209;BME280;24929;51.982;4.664;2022-12-18T05:01:25;79984.75;;;-143.36;nan
39209;BME280;24929;51.982;4.664;2022-12-18T05:03:51;79974.72;;;-143.36;nan
39209;BME280;24929;51.982;4.664;2022-12-18T05:06:17;79980.72;;;-143.36;nan
39209;BME280;24929;51.982;4.664;2022-12-18T05:08:42;79984.75;;;-143.36;nan
39209;BME280;24929;51.982;4.664;2022-12-18T05:11:10;79960.66;;;-143.36;nan
39209;BME280;24929;51.982;4.664;2022-12-18T05:13:36;79968.69;;;-143.36;nan
39209;BME280;24929;51.982;4.664;2022-12-18T05:16:03;79968.69;;;-143.36;nan
39209;BME280;24929;51.982;4.664;2022-12-18T05:18:29;79954.63;;;-143.36;nan
39209;BME280;24929;51.982;4.664;2022-12-18T05:20:55;79960.66;;;-143.36;nan
39209;BME280;24929;51.982;4.664;2022-12-18T05:23:22;79936.53;;;-143.36;nan
39209;BME280;24929;51.982;4.664;2022-12-18T05:25:56;79926.50;;;-143.36;nan
39209;BME280;24929;51.982;4.664;2022-12-18T05:28:23;79964.66;;;-143.36;nan
39209;BME280;24929;51.982;4.664;2022-12-18T05:30:50;79972.69;;;-143.36;nan
39209;BME280;24929;51.982;4.664;2022-12-18T05:33:17;79968.69;;;-143.36;nan
39209;BME280;24929;51.982;4.664;2022-12-18T05:35:43;80022.91;;;-143.36;nan
39209;BME280;24929;51.982;4.664;2022-12-18T05:38:08;79996.81;;;-143.36;nan
39209;BME280;24929;51.982;4.664;2022-12-18T05:40:33;80030.94;;;-143.36;nan
39209;BME280;24929;51.982;4.664;2022-12-18T05:42:59;80028.94;;;-143.36;nan
39209;BME280;24929;51.982;4.664;2022-12-18T05:45:24;80057.06;;;-143.36;nan
39209;BME280;24929;51.982;4.664;2022-12-18T05:47:50;80028.94;;;-143.36;nan
39209;BME280;24929;51.982;4.664;2022-12-18T05:50:15;80020.91;;;-143.36;nan
39209;BME280;24929;51.982;4.664;2022-12-18T05:52:41;80026.94;;;-143.36;nan
39209;BME280;24929;51.982;4.664;2022-12-18T05:55:06;80034.97;;;-143.36;nan
39209;BME280;24929;51.982;4.664;2022-12-18T05:57:32;80038.97;;;-143.36;nan
39209;BME280;24929;51.982;4.664;2022-12-18T05:59:57;80065.09;;;-143.36;nan
39209;BME280;24929;51.982;4.664;2022-12-18T06:02:22;80099.22;;;-143.36;nan
39209;BME280;24929;51.982;4.664;2022-12-18T06:04:48;80053.03;;;-143.36;nan
39209;BME280;24929;51.982;4.664;2022-12-18T06:07:14;80020.91;;;-143.36;nan
39209;BME280;24929;51.982;4.664;2022-12-18T06:09:40;80053.03;;;-143.36;nan
39209;BME280;24929;51.982;4.664;2022-12-18T06:12:05;80012.88;;;-143.36;nan
39209;BME280;24929;51.982;4.664;2022-12-18T06:14:31;80036.97;;;-143.36;nan
39209;BME280;24929;51.982;4.664;2022-12-18T06:16:56;80038.97;;;-143.36;nan
39209;BME280;24929;51.982;4.664;2022-12-18T06:19:21;80045.00;;;-143.36;nan
39209;BME280;24929;51.982;4.664;2022-12-18T06:21:47;80038.97;;;-143.36;nan
39209;BME280;24929;51.982;4.664;2022-12-18T06:24:12;80047.00;;;-143.36;nan
39209;BME280;24929;51.982;4.664;2022-12-18T06:26:38;80022.91;;;-143.36;nan
39209;BME280;24929;51.982;4.664;2022-12-18T06:29:04;80043.00;;;-143.36;nan
39209;BME280;24929;51.982;4.664;2022-12-18T06:31:29;80045.00;;;-143.36;nan
39209;BME280;24929;51.982;4.664;2022-12-18T06:33:54;80057.06;;;-143.36;nan
39209;BME280;24929;51.982;4.664;2022-12-18T06:36:20;80063.09;;;-143.36;nan
39209;BME280;24929;51.982;4.664;2022-12-18T06:38:46;80045.00;;;-143.36;nan
39209;BME280;24929;51.982;4.664;2022-12-18T06:41:14;80059.06;;;-143.36;nan
39209;BME280;24929;51.982;4.664;2022-12-18T06:43:40;80043.00;;;-143.36;nan
39209;BME280;24929;51.982;4.664;2022-12-18T06:46:05;80063.09;;;-143.36;nan
39209;BME280;24929;51.982;4.664;2022-12-18T06:48:32;80059.06;;;-143.36;nan
39209;BME280;24929;51.982;4.664;2022-12-18T06:50:58;80061.06;;;-143.36;nan
39209;BME280;24929;51.982;4.664;2022-12-18T06:53:23;80057.06;;;-143.36;nan
39209;BME280;24929;51.982;4.664;2022-12-18T06:55:49;80043.00;;;-143.36;nan
39209;BME280;24929;51.982;4.664;2022-12-18T06:58:15;80061.06;;;-143.36;nan
39209;BME280;24929;51.982;4.664;2022-12-18T07:00:40;80043.00;;;-143.36;nan
39209;BME280;24929;51.982;4.664;2022-12-18T07:03:06;80053.03;;;-143.36;nan
39209;BME280;24929;51.982;4.664;2022-12-18T07:05:31;80036.97;;;-143.36;nan
39209;BME280;24929;51.982;4.664;2022-12-18T07:07:57;80043.00;;;-143.36;nan
39209;BME280;24929;51.982;4.664;2022-12-18T07:10:22;80053.03;;;-143.36;nan
39209;BME280;24929;51.982;4.664;2022-12-18T07:12:48;80045.00;;;-143.36;nan
39209;BME280;24929;51.982;4.664;2022-12-18T07:15:13;80043.00;;;-143.36;nan
39209;BME280;24929;51.982;4.664;2022-12-18T07:17:39;80049.03;;;-143.36;nan
39209;BME280;24929;51.982;4.664;2022-12-18T07:20:04;80057.06;;;-143.36;nan
39209;BME280;24929;51.982;4.664;2022-12-18T07:22:30;80028.94;;;-143.36;nan
39209;BME280;24929;51.982;4.664;2022-12-18T07:24:55;80030.94;;;-143.36;nan
39209;BME280;24929;51.982;4.664;2022-12-18T07:27:21;80024.91;;;-143.36;nan
39209;BME280;24929;51.982;4.664;2022-12-18T07:29:46;79992.78;;;-143.36;nan
39209;BME280;24929;51.982;4.664;2022-12-18T07:32:12;79992.78;;;-143.36;nan
39209;BME280;24929;51.982;4.664;2022-12-18T07:34:37;80006.84;;;-143.36;nan
39209;BME280;24929;51.982;4.664;2022-12-18T07:37:02;79984.75;;;-143.36;nan
39209;BME280;24929;51.982;4.664;2022-12-18T07:39:28;80022.91;;;-143.36;nan
39209;BME280;24929;51.982;4.664;2022-12-18T07:41:53;79978.72;;;-143.36;nan
39209;BME280;24929;51.982;4.664;2022-12-18T07:44:37;79978.72;;;-143.36;nan
39209;BME280;24929;51.982;4.664;2022-12-18T07:47:03;79990.78;;;-143.36;nan
39209;BME280;24929;51.982;4.664;2022-12-18T07:49:28;80006.84;;;-143.36;nan
39209;BME280;24929;51.982;4.664;2022-12-18T07:51:56;79986.75;;;-143.36;nan
39209;BME280;24929;51.982;4.664;2022-12-18T07:54:22;79954.63;;;-143.36;nan
39209;BME280;24929;51.982;4.664;2022-12-18T07:56:48;79976.72;;;-143.36;nan
39209;BME280;24929;51.982;4.664;2022-12-18T07:59:13;80020.91;;;-143.36;nan
39209;BME280;24929;51.982;4.664;2022-12-18T08:01:38;80022.91;;;-143.36;nan
39209;BME280;24929;51.982;4.664;2022-12-18T08:04:04;79956.63;;;-143.36;nan
39209;BME280;24929;51.982;4.664;2022-12-18T08:06:29;79968.69;;;-143.36;nan
39209;BME280;24929;51.982;4.664;2022-12-18T08:08:55;79968.69;;;-143.36;nan
39209;BME280;24929;51.982;4.664;2022-12-18T08:11:22;79962.66;;;-143.36;nan
39209;BME280;24929;51.982;4.664;2022-12-18T08:13:48;79970.69;;;-143.36;nan
39209;BME280;24929;51.982;4.664;2022-12-18T08:16:13;79992.78;;;-143.36;nan
39209;BME280;24929;51.982;4.664;2022-12-18T08:18:39;79982.75;;;-143.36;nan
39209;BME280;24929;51.982;4.664;2022-12-18T08:21:28;79958.63;;;-143.36;nan
39209;BME280;24929;51.982;4.664;2022-12-18T08:23:57;79954.63;;;-143.36;nan
39209;BME280;24929;51.982;4.664;2022-12-18T08:26:24;79926.50;;;-143.36;nan
39209;BME280;24929;51.982;4.664;2022-12-18T08:28:50;79920.47;;;-143.36;nan
39209;BME280;24929;51.982;4.664;2022-12-18T08:31:17;79946.59;;;-143.36;nan
39209;BME280;24929;51.982;4.664;2022-12-18T08:33:42;79940.56;;;-143.36;nan
39209;BME280;24929;51.982;4.664;2022-12-18T08:36:09;79880.31;;;-143.36;nan
39209;BME280;24929;51.982;4.664;2022-12-18T08:38:35;79898.38;;;-143.36;nan
39209;BME280;24929;51.982;4.664;2022-12-18T08:41:01;79894.38;;;-143.36;nan
39209;BME280;24929;51.982;4.664;2022-12-18T08:43:26;79884.31;;;-143.36;nan
39209;BME280;24929;51.982;4.664;2022-12-18T08:52:54;79906.41;;;-143.36;nan
39209;BME280;24929;51.982;4.664;2022-12-18T08:55:20;79906.41;;;-143.36;nan
39209;BME280;24929;51.982;4.664;2022-12-18T08:57:48;79902.41;;;-143.36;nan
39209;BME280;24929;51.982;4.664;2022-12-18T09:00:14;79940.56;;;-143.36;nan
39209;BME280;24929;51.982;4.664;2022-12-18T09:02:40;79932.53;;;-143.36;nan
39209;BME280;24929;51.982;4.664;2022-12-18T09:05:06;79900.41;;;-143.36;nan
39209;BME280;24929;51.982;4.664;2022-12-18T09:07:31;79910.44;;;-143.36;nan
39209;BME280;24929;51.982;4.664;2022-12-18T09:09:56;79856.22;;;-143.36;nan
39209;BME280;24929;51.982;4.664;2022-12-18T09:12:22;79860.22;;;-143.36;nan
39209;BME280;24929;51.982;4.664;2022-12-18T09:14:47;79836.13;;;-143.36;nan
39209;BME280;24929;51.982;4.664;2022-12-18T09:21:13;79769.84;;;-143.36;nan
39209;BME280;24929;51.982;4.664;2022-12-18T09:23:39;79747.75;;;-143.36;nan
39209;BME280;24929;51.982;4.664;2022-12-18T09:26:05;79781.91;;;-143.36;nan
39209;BME280;24929;51.982;4.664;2022-12-18T09:28:31;79761.81;;;-143.36;nan
39209;BME280;24929;51.982;4.664;2022-12-18T09:30:57;79749.78;;;-143.36;nan
39209;BME280;24929;51.982;4.664;2022-12-18T09:33:24;79747.75;;;-143.36;nan
39209;BME280;24929;51.982;4.664;2022-12-18T09:35:50;79755.78;;;-143.36;nan
39209;BME280;24929;51.982;4.664;2022-12-18T09:38:17;79757.81;;;-143.36;nan
39209;BME280;24929;51.982;4.664;2022-12-18T09:40:48;79717.63;;;-143.36;nan
39209;BME280;24929;51.982;4.664;2022-12-18T09:43:28;79705.59;;;-143.36;nan
39209;BME280;24929;51.982;4.664;2022-12-18T09:46:03;79697.56;;;-143.36;nan
39209;BME280;24929;51.982;4.664;2022-12-18T09:48:42;79721.66;;;-143.36;nan
39209;BME280;24929;51.982;4.664;2022-12-18T09:53:39;79759.81;;;-143.36;nan
39209;BME280;24929;51.982;4.664;2022-12-18T09:56:12;79645.34;;;-143.36;nan
39209;BME280;24929;51.982;4.664;2022-12-18T09:58:46;79725.66;;;-143.36;nan
39209;BME280;24929;51.982;4.664;2022-12-18T10:01:17;79765.84;;;-143.36;nan
39209;BME280;24929;51.982;4.664;2022-12-18T10:03:43;79693.53;;;-143.36;nan
39209;BME280;24929;51.982;4.664;2022-12-18T10:06:22;79649.34;;;-143.36;nan
39209;BME280;24929;51.982;4.664;2022-12-18T10:09:16;79607.19;;;-143.36;nan
39209;BME280;24929;51.982;4.664;2022-12-18T10:17:14;79597.13;;;-143.36;nan
39209;BME280;24929;51.982;4.664;2022-12-18T10:19:57;79583.09;;;-143.36;nan
39209;BME280;24929;51.982;4.664;2022-12-18T10:31:32;79530.88;;;-143.36;nan
39209;BME280;24929;51.982;4.664;2022-12-18T10:33:57;79599.16;;;-143.36;nan
39209;BME280;24929;51.982;4.664;2022-12-18T10:36:24;79563.00;;;-143.36;nan
39209;BME280;24929;51.982;4.664;2022-12-18T10:38:49;79587.09;;;-143.36;nan
39209;BME280;24929;51.982;4.664;2022-12-18T10:43:43;79540.91;;;-143.36;nan
39209;BME280;24929;51.982;4.664;2022-12-18T10:48:55;79440.50;;;-143.36;nan
39209;BME280;24929;51.982;4.664;2022-12-18T10:51:33;79456.56;;;-143.36;nan
39209;BME280;24929;51.982;4.664;2022-12-18T10:54:02;79468.59;;;-143.36;nan
39209;BME280;24929;51.982;4.664;2022-12-18T11:03:44;79436.47;;;-143.36;nan
39209;BME280;24929;51.982;4.664;2022-12-18T11:06:13;79448.53;;;-143.36;nan
39209;BME280;24929;51.982;4.664;2022-12-18T11:08:41;79446.53;;;-143.36;nan
39209;BME280;24929;51.982;4.664;2022-12-18T11:11:15;79394.31;;;-143.36;nan
39209;BME280;24929;51.982;4.664;2022-12-18T11:13:55;79364.19;;;-143.36;nan
39209;BME280;24929;51.982;4.664;2022-12-18T11:16:23;79434.47;;;-143.36;nan
39209;BME280;24929;51.982;4.664;2022-12-18T11:18:49;79418.41;;;-143.36;nan
39209;BME280;24929;51.982;4.664;2022-12-18T11:21:14;79432.47;;;-143.36;nan
39209;BME280;24929;51.982;4.664;2022-12-18T11:23:53;79366.19;;;-143.36;nan
39209;BME280;24929;51.982;4.664;2022-12-18T11:26:19;79404.34;;;-143.36;nan
39209;BME280;24929;51.982;4.664;2022-12-18T11:29:10;79362.19;;;-143.36;nan
39209;BME280;24929;51.982;4.664;2022-12-18T11:31:42;79402.34;;;-143.36;nan
39209;BME280;24929;51.982;4.664;2022-12-18T11:34:14;79334.06;;;-143.36;nan
39209;BME280;24929;51.982;4.664;2022-12-18T11:36:45;79382.25;;;-143.36;nan
39209;BME280;24929;51.982;4.664;2022-12-18T11:42:04;79358.16;;;-143.36;nan
39209;BME280;24929;51.982;4.664;2022-12-18T11:44:56;79320.00;;;-143.36;nan
39209;BME280;24929;51.982;4.664;2022-12-18T11:47:44;79354.16;;;-143.36;nan
39209;BME280;24929;51.982;4.664;2022-12-18T11:50:38;79358.16;;;-143.36;nan
39209;BME280;24929;51.982;4.664;2022-12-18T11:53:12;79380.25;;;-143.36;nan
39209;BME280;24929;51.982;4.664;2022-12-18T12:01:36;79309.97;;;-143.36;nan
39209;BME280;24929;51.982;4.664;2022-12-18T12:10:16;79217.59;;;-143.36;50.66
39209;BME280;24929;51.982;4.664;2022-12-18T12:15:52;79239.69;;;-143.36;51.18
39209;BME280;24929;51.982;4.664;2022-12-18T12:23:39;79269.81;;;-143.36;51.11
39209;BME280;24929;51.982;4.664;2022-12-18T12:26:11;79289.88;;;-143.36;52.08
39209;BME280;24929;51.982;4.664;2022-12-18T12:39:01;79225.63;;;-143.36;51.15
39209;BME280;24929;51.982;4.664;2022-12-18T12:41:32;79209.56;;;-143.36;51.09
39209;BME280;24929;51.982;4.664;2022-12-18T12:44:27;79149.31;;;-143.36;50.20
39209;BME280;24929;51.982;4.664;2022-12-18T12:46:58;79175.44;;;-143.36;51.03
39209;BME280;24929;51.982;4.664;2022-12-18T12:49:27;79139.28;;;-143.36;50.42
39209;BME280;24929;51.982;4.664;2022-12-18T12:52:03;79131.25;;;-143.36;50.20
39209;BME280;24929;51.982;4.664;2022-12-18T12:54:31;79153.34;;;-143.36;50.00
39209;BME280;24929;51.982;4.664;2022-12-18T12:57:19;79125.22;;;-143.36;49.50
39209;BME280;24929;51.982;4.664;2022-12-18T12:59:50;79203.53;;;-143.36;50.40
39209;BME280;24929;51.982;4.664;2022-12-18T13:02:51;79129.25;;;-143.36;49.78
39209;BME280;24929;51.982;4.664;2022-12-18T13:05:29;79153.34;;;-143.36;50.18
39209;BME280;24929;51.982;4.664;2022-12-18T13:08:03;79147.31;;;-143.36;50.17
39209;BME280;24929;51.982;4.664;2022-12-18T13:10:41;79199.53;;;-143.36;51.06
39209;BME280;24929;51.982;4.664;2022-12-18T13:13:12;79177.44;;;-143.36;51.14
39209;BME280;24929;51.982;4.664;2022-12-18T13:15:45;79169.41;;;-143.36;50.82
39209;BME280;24929;51.982;4.664;2022-12-18T13:20:50;79169.41;;;-143.36;51.26
39209;BME280;24929;51.982;4.664;2022-12-18T13:23:26;79145.31;;;-143.36;51.08
39209;BME280;24929;51.982;4.664;2022-12-18T13:25:54;79163.38;;;-143.36;51.73
39209;BME280;24929;51.982;4.664;2022-12-18T13:28:56;79139.28;;;-143.36;52.05
39209;BME280;24929;51.982;4.664;2022-12-18T13:36:38;79167.41;;;-143.36;nan
39209;BME280;24929;51.982;4.664;2022-12-18T13:41:40;79117.19;;;-143.36;nan
39209;BME280;24929;51.982;4.664;2022-12-18T13:44:42;79081.06;;;-143.36;nan
39209;BME280;24929;51.982;4.664;2022-12-18T13:47:37;79091.09;;;-143.36;nan
39209;BME280;24929;51.982;4.664;2022-12-18T13:50:20;79069.00;;;-143.36;nan
39209;BME280;24929;51.982;4.664;2022-12-18T13:52:50;79167.41;;;-143.36;nan
39209;BME280;24929;51.982;4.664;2022-12-18T13:55:19;79179.44;;;-143.36;nan
39209;BME280;24929;51.982;4.664;2022-12-18T13:57:45;79163.38;;;-143.36;nan
39209;BME280;24929;51.982;4.664;2022-12-18T14:00:27;79083.06;;;-143.36;nan
39209;BME280;24929;51.982;4.664;2022-12-18T14:02:54;79207.56;;;-143.36;nan
39209;BME280;24929;51.982;4.664;2022-12-18T14:05:24;79093.09;;;-143.36;nan
39209;BME280;24929;51.982;4.664;2022-12-18T14:07:50;79135.25;;;-143.36;nan
39209;BME280;24929;51.982;4.664;2022-12-18T14:10:16;79064.97;;;-143.36;nan
39209;BME280;24929;51.982;4.664;2022-12-18T14:12:45;79083.06;;;-143.36;nan
39209;BME280;24929;51.982;4.664;2022-12-18T14:15:31;79067.00;;;-143.36;nan
39209;BME280;24929;51.982;4.664;2022-12-18T14:20:49;79113.19;;;-143.36;nan
39209;BME280;24929;51.982;4.664;2022-12-18T14:25:53;79155.34;;;-143.36;nan
39209;BME280;24929;51.982;4.664;2022-12-18T14:28:18;79155.34;;;-143.36;nan
39209;BME280;24929;51.982;4.664;2022-12-18T14:30:45;79163.38;;;-143.36;nan
39209;BME280;24929;51.982;4.664;2022-12-18T14:33:14;79119.19;;;-143.36;nan
39209;BME280;24929;51.982;4.664;2022-12-18T14:35:51;79123.22;;;-143.36;nan
39209;BME280;24929;51.982;4.664;2022-12-18T14:41:14;79109.16;;;-143.36;nan
39209;BME280;24929;51.982;4.664;2022-12-18T14:43:40;79097.13;;;-143.36;nan
39209;BME280;24929;51.982;4.664;2022-12-18T14:48:59;79103.13;;;-143.36;nan
39209;BME280;24929;51.982;4.664;2022-12-18T14:51:27;79103.13;;;-143.36;nan
39209;BME280;24929;51.982;4.664;2022-12-18T14:53:56;79064.97;;;-143.36;nan
39209;BME280;24929;51.982;4.664;2022-12-18T14:56:28;79020.81;;;-143.36;nan
39209;BME280;24929;51.982;4.664;2022-12-18T14:58:59;79038.88;;;-143.36;nan
39209;BME280;24929;51.982;4.664;2022-12-18T15:01:37;79058.97;;;-143.36;nan
39209;BME280;24929;51.982;4.664;2022-12-18T15:04:04;79062.97;;;-143.36;nan
39209;BME280;24929;51.982;4.664;2022-12-18T15:06:35;79034.88;;;-143.36;nan